Time;durP1;ratioP1;P1;durP2;ratioP2;P2;SDS_P1;SDS_P2;PMS_P1;PMS_P2;Temp;Humidity;BMP_temperature;BMP_pressure;BME280_temperature;BME280_humidity;BME280_pressure;Samples;Min_cycle;Max_cycle;Signal;HPM_P1;HPM_P2
2023/01/27 00:01:05;;;;;;;9.30;8.03;;;-0.20;99.90;;;;;;5090364;28;20401;-71
2023/01/27 00:03:31;;;;;;;8.30;7.40;;;-0.10;99.90;;;;;;5089739;28;20874;-71
2023/01/27 00:06:00;;;;;;;10.80;7.93;;;-0.30;99.90;;;;;;5094404;28;20370;-71
2023/01/27 00:08:26;;;;;;;11.18;8.77;;;-0.20;99.90;;;;;;5093193;28;20389;-71
2023/01/27 00:13:25;;;;;;;10.32;8.77;;;-0.20;99.90;;;;;;5093886;28;20786;-71
2023/01/27 00:13:42;;;;;;;10.68;8.50;;;-0.30;99.90;;;;;;5093147;28;20524;-72
2023/01/27 00:16:08;;;;;;;9.87;8.13;;;-0.10;99.90;;;;;;5094246;28;20460;-71
2023/01/27 00:18:34;;;;;;;10.47;8.30;;;-0.10;99.90;;;;;;5094129;28;20461;-72
2023/01/27 00:26:28;;;;;;;10.57;8.90;;;-0.10;99.90;;;;;;5094081;28;20397;-72
2023/01/27 00:28:53;;;;;;;9.25;8.10;;;-0.10;99.90;;;;;;5093299;28;20394;-71
2023/01/27 00:34:09;;;;;;;10.77;8.70;;;-0.30;99.90;;;;;;5091343;28;20400;-71
2023/01/27 00:36:37;;;;;;;11.88;10.07;;;-0.10;99.90;;;;;;5093755;28;20535;-72
2023/01/27 00:39:03;;;;;;;12.85;10.35;;;-0.20;99.90;;;;;;5093817;28;20381;-72
2023/01/27 00:41:29;;;;;;;10.10;9.10;;;0.00;99.90;;;;;;5093665;28;20381;-71
2023/01/27 00:43:54;;;;;;;12.23;9.33;;;-0.10;99.90;;;;;;5092683;28;20377;-71
2023/01/27 00:46:23;;;;;;;10.70;8.83;;;-0.10;99.90;;;;;;5093174;28;20396;-72
2023/01/27 00:48:50;;;;;;;11.00;9.68;;;-0.30;99.90;;;;;;5093688;28;20393;-72
2023/01/27 00:51:16;;;;;;;12.82;10.60;;;-0.20;99.90;;;;;;5093496;28;20386;-71
2023/01/27 00:53:42;;;;;;;12.93;10.18;;;-0.10;99.90;;;;;;5092956;28;20922;-72
2023/01/27 00:56:08;;;;;;;11.95;9.82;;;-0.10;99.90;;;;;;5093670;28;20417;-72
2023/01/27 00:58:34;;;;;;;12.32;10.13;;;-0.10;99.90;;;;;;5093274;28;20396;-72
2023/01/27 01:01:02;;;;;;;11.07;9.90;;;-0.10;99.90;;;;;;5093190;28;20402;-71
2023/01/27 01:03:32;;;;;;;14.02;10.52;;;-0.10;99.90;;;;;;5092603;28;20382;-71
2023/01/27 01:06:04;;;;;;;12.23;10.75;;;-0.10;99.90;;;;;;5093448;28;20426;-71
2023/01/27 01:08:31;;;;;;;13.60;10.80;;;-0.20;99.90;;;;;;5093114;28;20477;-72
2023/01/27 01:10:57;;;;;;;13.65;10.90;;;-0.20;99.90;;;;;;5091859;28;20749;-72
2023/01/27 01:13:23;;;;;;;13.68;11.00;;;-0.10;99.90;;;;;;5090941;28;20409;-71
2023/01/27 01:15:48;;;;;;;12.75;10.80;;;-0.20;99.90;;;;;;5092809;28;20390;-71
2023/01/27 01:18:14;;;;;;;13.33;10.27;;;-0.40;99.90;;;;;;5093460;28;20469;-71
2023/01/27 01:20:44;;;;;;;12.90;10.87;;;-0.30;99.90;;;;;;5092921;28;20405;-71
2023/01/27 01:23:11;;;;;;;13.10;10.90;;;-0.20;99.90;;;;;;5092134;28;20394;-71
2023/01/27 01:25:37;;;;;;;14.15;10.45;;;-0.10;99.90;;;;;;5092811;28;20997;-71
2023/01/27 01:28:04;;;;;;;12.70;10.20;;;-0.30;99.90;;;;;;5091210;28;20416;-71
2023/01/27 01:30:30;;;;;;;13.60;10.90;;;-0.10;99.90;;;;;;5092801;28;20488;-71
2023/01/27 01:32:56;;;;;;;13.50;10.60;;;-0.40;99.90;;;;;;5092035;28;20387;-72
2023/01/27 01:35:25;;;;;;;14.65;10.80;;;-0.20;99.90;;;;;;5085624;28;20392;-71
2023/01/27 01:37:52;;;;;;;14.55;10.55;;;-0.30;99.90;;;;;;5072588;28;20375;-71
2023/01/27 01:40:18;;;;;;;12.73;10.52;;;-0.30;99.90;;;;;;5077379;28;20432;-71
2023/01/27 01:42:56;;;;;;;14.82;10.70;;;-0.30;99.90;;;;;;5091376;28;20402;-72
2023/01/27 01:45:30;;;;;;;14.48;11.00;;;-0.30;99.90;;;;;;5092515;28;20887;-72
2023/01/27 01:48:18;;;;;;;12.88;10.70;;;-0.20;99.90;;;;;;5092520;28;20425;-72
2023/01/27 01:50:50;;;;;;;15.68;11.82;;;-0.30;99.90;;;;;;5091961;28;20440;-72
2023/01/27 01:53:17;;;;;;;15.18;12.60;;;-0.40;99.90;;;;;;5091576;28;20389;-71
2023/01/27 01:55:42;;;;;;;18.40;12.45;;;-0.40;99.90;;;;;;5080479;28;20398;-73
2023/01/27 01:58:10;;;;;;;15.50;11.52;;;-0.30;99.90;;;;;;5092382;28;20374;-71
2023/01/27 02:00:36;;;;;;;14.75;11.32;;;-0.30;99.90;;;;;;5092127;28;20405;-71
2023/01/27 02:03:02;;;;;;;15.70;12.27;;;-0.40;99.90;;;;;;5091319;28;20378;-71
2023/01/27 02:05:38;;;;;;;14.95;11.18;;;-0.40;99.90;;;;;;5092181;28;20466;-71
2023/01/27 02:08:07;;;;;;;13.93;11.07;;;-0.40;99.90;;;;;;5091937;28;21053;-71
2023/01/27 02:10:33;;;;;;;15.20;11.63;;;-0.40;99.90;;;;;;5092044;28;20468;-71
2023/01/27 02:12:59;;;;;;;12.85;11.45;;;-0.50;99.90;;;;;;5090269;22;20456;-69
2023/01/27 02:15:25;;;;;;;14.60;11.80;;;-0.30;99.90;;;;;;5051345;28;20851;-68
2023/01/27 02:17:51;;;;;;;15.60;11.70;;;-0.20;99.90;;;;;;5051422;28;20933;-69
2023/01/27 02:20:45;;;;;;;15.18;11.05;;;-0.20;99.90;;;;;;5050839;28;20907;-69
2023/01/27 02:23:16;;;;;;;13.87;10.10;;;-0.20;99.90;;;;;;5050730;28;20396;-69
2023/01/27 02:26:16;;;;;;;13.68;11.32;;;-0.30;99.90;;;;;;5051118;28;20407;-69
2023/01/27 02:28:42;;;;;;;16.58;12.07;;;-0.30;99.90;;;;;;5028808;28;20769;-69
2023/01/27 02:31:07;;;;;;;15.68;11.40;;;-0.30;99.90;;;;;;5031066;28;20484;-68
2023/01/27 02:33:33;;;;;;;13.63;11.50;;;-0.30;99.90;;;;;;5030393;28;20440;-69
2023/01/27 02:36:04;;;;;;;15.10;12.13;;;-0.20;99.90;;;;;;5042925;28;20481;-69
2023/01/27 02:38:37;;;;;;;14.38;11.20;;;-0.40;99.90;;;;;;5050746;28;20430;-69
2023/01/27 02:41:29;;;;;;;16.90;12.20;;;-0.30;99.90;;;;;;5050344;28;20409;-68
2023/01/27 02:43:55;;;;;;;15.20;11.47;;;-0.30;99.90;;;;;;5039185;28;20397;-69
2023/01/27 02:46:20;;;;;;;16.02;12.10;;;-0.20;99.90;;;;;;5050916;28;20393;-70
2023/01/27 02:48:46;;;;;;;17.80;12.35;;;-0.20;99.90;;;;;;5050794;28;20392;-69
2023/01/27 02:51:12;;;;;;;16.30;12.93;;;-0.20;99.90;;;;;;5050265;28;20431;-70
2023/01/27 02:53:38;;;;;;;16.00;12.90;;;-0.10;99.90;;;;;;5049553;28;20396;-69
2023/01/27 02:56:04;;;;;;;15.38;12.40;;;-0.10;99.90;;;;;;5050491;28;20389;-69
2023/01/27 02:58:29;;;;;;;16.08;11.77;;;-0.20;99.90;;;;;;5050664;28;20393;-69
2023/01/27 03:00:55;;;;;;;17.43;13.30;;;-0.10;99.90;;;;;;5050420;28;20398;-70
2023/01/27 03:03:20;;;;;;;17.53;12.03;;;-0.30;99.90;;;;;;5049855;28;20426;-69
2023/01/27 03:05:46;;;;;;;18.27;13.20;;;-0.40;99.90;;;;;;5050033;28;20450;-70
2023/01/27 03:08:12;;;;;;;18.55;13.20;;;-0.40;99.90;;;;;;5050287;28;20394;-70
2023/01/27 03:10:38;;;;;;;15.15;12.15;;;-0.20;99.90;;;;;;5050126;28;20394;-70
2023/01/27 03:13:03;;;;;;;19.50;13.13;;;-0.20;99.90;;;;;;5049547;28;20417;-70
2023/01/27 03:18:15;;;;;;;17.75;13.38;;;-0.10;99.90;;;;;;5050402;28;20878;-69
2023/01/27 03:20:43;;;;;;;15.68;13.00;;;-0.40;99.90;;;;;;5049727;28;20516;-69
2023/01/27 03:23:09;;;;;;;19.80;13.70;;;-0.40;99.90;;;;;;5031310;28;20896;-69
2023/01/27 03:25:35;;;;;;;20.47;13.93;;;-0.30;99.90;;;;;;5050048;28;20737;-69
2023/01/27 03:28:01;;;;;;;16.67;13.27;;;-0.10;99.90;;;;;;5049709;28;20408;-69
2023/01/27 03:30:27;;;;;;;17.80;13.05;;;-0.20;99.90;;;;;;5032294;28;20507;-69
2023/01/27 03:32:53;;;;;;;18.52;12.70;;;-0.20;99.90;;;;;;5049560;28;20389;-69
2023/01/27 03:35:21;;;;;;;18.57;12.87;;;-0.20;99.90;;;;;;5050198;28;20810;-71
2023/01/27 03:46:17;;;;;;;15.95;13.40;;;0.00;99.90;;;;;;5050284;28;20421;-69
2023/01/27 03:48:43;;;;;;;18.65;13.40;;;-0.10;99.90;;;;;;5050295;28;21089;-70
2023/01/27 03:51:09;;;;;;;16.50;12.98;;;-0.40;99.90;;;;;;5049914;28;20386;-69
2023/01/27 03:53:36;;;;;;;17.77;13.60;;;-0.40;99.90;;;;;;5049251;28;20787;-69
2023/01/27 03:56:03;;;;;;;17.65;12.93;;;-0.30;99.90;;;;;;5049443;28;20934;-70
2023/01/27 03:58:31;;;;;;;17.75;12.38;;;-0.20;99.90;;;;;;5050020;28;20484;-69
2023/01/27 04:00:59;;;;;;;16.25;12.48;;;-0.20;99.90;;;;;;5049805;28;20411;-69
2023/01/27 04:09:10;;;;;;;17.27;13.10;;;-0.30;99.90;;;;;;5049614;28;20397;-69
2023/01/27 04:11:54;;;;;;;16.17;13.02;;;-0.30;99.90;;;;;;5049498;28;20397;-69
2023/01/27 04:14:28;;;;;;;18.83;13.85;;;-0.30;99.90;;;;;;5031571;28;20438;-69
2023/01/27 04:17:05;;;;;;;17.60;13.50;;;-0.30;99.90;;;;;;5049638;28;20388;-69
2023/01/27 04:19:31;;;;;;;15.30;12.18;;;-0.30;99.90;;;;;;5049475;28;20963;-69
2023/01/27 04:21:58;;;;;;;17.83;13.57;;;-0.30;99.90;;;;;;5049640;28;20760;-69
2023/01/27 04:24:24;;;;;;;17.00;13.27;;;-0.10;99.90;;;;;;5048886;28;20489;-69
2023/01/27 04:27:02;;;;;;;16.00;12.60;;;-0.10;99.90;;;;;;5049638;28;20417;-69
2023/01/27 04:29:30;;;;;;;17.67;12.70;;;-0.20;99.90;;;;;;5049657;28;20432;-69
2023/01/27 04:31:56;;;;;;;18.00;13.50;;;-0.20;99.90;;;;;;5049362;28;20480;-69
2023/01/27 04:34:23;;;;;;;18.52;14.25;;;-0.20;99.90;;;;;;5049062;28;20398;-69
2023/01/27 04:36:48;;;;;;;17.60;12.88;;;-0.10;99.90;;;;;;5049726;28;20394;-69
2023/01/27 04:39:15;;;;;;;16.40;13.57;;;-0.20;99.90;;;;;;5049722;28;20472;-69
2023/01/27 04:41:42;;;;;;;20.05;14.00;;;-0.30;99.90;;;;;;5049477;28;20408;-70
2023/01/27 04:44:07;;;;;;;18.73;14.32;;;-0.30;99.90;;;;;;5049120;28;20382;-70
2023/01/27 04:46:33;;;;;;;19.60;14.67;;;-0.30;99.90;;;;;;5049896;28;20449;-68
2023/01/27 04:49:00;;;;;;;18.13;13.15;;;-0.10;99.90;;;;;;5049887;28;20385;-68
2023/01/27 04:51:26;;;;;;;20.15;14.18;;;-0.10;99.90;;;;;;5052861;28;20881;-69
2023/01/27 04:53:52;;;;;;;17.48;12.70;;;0.00;99.90;;;;;;5052284;28;20763;-69
2023/01/27 04:56:30;;;;;;;17.60;13.50;;;-0.10;99.90;;;;;;5053187;28;20390;-69
2023/01/27 04:58:59;;;;;;;18.15;12.88;;;-0.30;99.90;;;;;;5052947;28;20381;-70
2023/01/27 05:01:26;;;;;;;19.48;13.77;;;-0.20;99.90;;;;;;5053084;28;20420;-69
2023/01/27 05:03:51;;;;;;;22.15;14.60;;;-0.20;99.90;;;;;;5034385;28;20389;-69
2023/01/27 05:06:17;;;;;;;16.43;13.50;;;-0.10;99.90;;;;;;5053111;28;20747;-69
2023/01/27 05:08:42;;;;;;;20.80;14.83;;;-0.20;99.90;;;;;;5052990;28;20475;-70
2023/01/27 05:11:08;;;;;;;20.77;14.70;;;-0.40;99.90;;;;;;5052624;28;20392;-69
2023/01/27 05:13:34;;;;;;;18.63;14.18;;;-0.30;99.90;;;;;;5051402;28;20506;-70
2023/01/27 05:16:05;;;;;;;19.40;14.55;;;-0.30;99.90;;;;;;5052976;28;20764;-70
2023/01/27 05:18:30;;;;;;;20.15;14.00;;;-0.20;99.90;;;;;;5052916;28;20381;-69
2023/01/27 05:21:03;;;;;;;21.45;14.88;;;-0.20;99.90;;;;;;5052887;28;20412;-69
2023/01/27 05:23:34;;;;;;;19.05;13.57;;;-0.10;99.90;;;;;;5051548;28;20430;-69
2023/01/27 05:26:09;;;;;;;21.13;14.30;;;-0.30;99.90;;;;;;5052742;28;20421;-70
2023/01/27 05:28:36;;;;;;;19.52;13.45;;;-0.30;99.90;;;;;;5052402;28;20407;-69
2023/01/27 05:31:11;;;;;;;18.33;14.30;;;-0.20;99.90;;;;;;5052630;28;20751;-69
2023/01/27 05:33:38;;;;;;;19.60;13.60;;;-0.20;99.90;;;;;;5051880;28;20467;-69
2023/01/27 05:36:05;;;;;;;19.30;13.85;;;-0.20;99.90;;;;;;5052626;28;20393;-69
2023/01/27 05:38:31;;;;;;;18.52;14.45;;;-0.40;99.90;;;;;;5052365;28;20390;-68
2023/01/27 05:41:02;;;;;;;21.20;13.55;;;-0.30;99.90;;;;;;5051311;28;20420;-69
2023/01/27 05:43:29;;;;;;;19.58;13.35;;;-0.10;99.90;;;;;;5051409;28;20401;-70
2023/01/27 05:46:07;;;;;;;18.73;13.90;;;-0.20;99.90;;;;;;5052406;28;20464;-69
2023/01/27 05:48:34;;;;;;;19.20;13.48;;;0.00;99.90;;;;;;5051987;28;20408;-69
2023/01/27 05:51:00;;;;;;;18.05;13.88;;;0.00;99.90;;;;;;5052264;28;20381;-69
2023/01/27 05:53:25;;;;;;;20.15;14.20;;;0.00;99.90;;;;;;5051002;28;20883;-69
2023/01/27 05:55:51;;;;;;;19.80;14.82;;;0.00;99.90;;;;;;5052001;28;20401;-69
2023/01/27 05:58:18;;;;;;;20.40;15.53;;;-0.20;99.90;;;;;;5051836;28;20404;-69
2023/01/27 06:00:44;;;;;;;18.73;14.27;;;-0.20;99.90;;;;;;5051394;28;20405;-70
2023/01/27 06:03:09;;;;;;;19.30;13.57;;;-0.10;99.90;;;;;;5050454;28;20390;-69
2023/01/27 06:05:35;;;;;;;20.50;14.05;;;0.00;99.90;;;;;;5052039;28;20373;-69
2023/01/27 06:08:00;;;;;;;18.95;13.95;;;-0.10;99.90;;;;;;5051950;28;20388;-69
2023/01/27 06:10:26;;;;;;;20.17;14.40;;;-0.10;99.90;;;;;;5051677;28;20884;-70
2023/01/27 06:12:51;;;;;;;17.85;13.70;;;-0.20;99.90;;;;;;5050817;28;20402;-70
2023/01/27 06:15:17;;;;;;;18.05;13.75;;;-0.20;99.90;;;;;;5051820;28;20447;-69
2023/01/27 06:17:42;;;;;;;18.13;13.75;;;0.00;99.90;;;;;;5051512;28;20892;-69
2023/01/27 06:20:08;;;;;;;18.02;13.88;;;0.00;99.90;;;;;;5051628;28;20880;-69
2023/01/27 06:22:34;;;;;;;16.33;13.60;;;-0.10;99.90;;;;;;5047888;28;20826;-69
2023/01/27 06:24:59;;;;;;;19.10;13.57;;;-0.20;99.90;;;;;;5052309;28;20480;-69
2023/01/27 06:27:25;;;;;;;19.90;14.40;;;-0.20;99.90;;;;;;5055869;28;20402;-69
2023/01/27 06:29:51;;;;;;;19.10;13.97;;;-0.30;99.90;;;;;;5058898;28;20401;-70
2023/01/27 06:32:16;;;;;;;19.90;14.63;;;-0.40;99.90;;;;;;5059519;28;20392;-70
2023/01/27 06:34:42;;;;;;;19.47;14.13;;;-0.30;99.90;;;;;;5054390;28;20511;-70
2023/01/27 06:37:08;;;;;;;20.00;14.13;;;-0.30;99.90;;;;;;5068233;28;20492;-70
2023/01/27 06:39:33;;;;;;;21.02;14.35;;;-0.10;99.90;;;;;;5071145;28;20446;-71
2023/01/27 06:41:59;;;;;;;18.63;13.50;;;-0.10;99.90;;;;;;5034523;28;20412;-71
2023/01/27 06:44:24;;;;;;;17.67;13.38;;;0.00;99.90;;;;;;5040385;28;20457;-70
2023/01/27 06:46:52;;;;;;;18.55;13.70;;;0.10;99.90;;;;;;5065582;28;20896;-70
2023/01/27 06:49:18;;;;;;;18.73;13.98;;;0.10;99.90;;;;;;5056416;28;20385;-70
2023/01/27 06:51:43;;;;;;;19.05;13.63;;;0.00;99.90;;;;;;5033917;28;20388;-69
2023/01/27 06:54:09;;;;;;;21.20;15.93;;;-0.20;99.90;;;;;;5050318;28;20472;-69
2023/01/27 06:56:35;;;;;;;20.02;15.23;;;0.00;99.90;;;;;;5059140;28;20457;-70
2023/01/27 06:59:00;;;;;;;18.80;14.88;;;0.20;99.90;;;;;;5059511;28;20393;-70
2023/01/27 07:01:27;;;;;;;20.88;15.30;;;0.00;99.90;;;;;;5050555;28;20397;-70
2023/01/27 07:03:52;;;;;;;19.33;15.60;;;0.00;99.90;;;;;;5032077;28;20413;-70
2023/01/27 07:06:19;;;;;;;20.60;15.20;;;-0.10;99.90;;;;;;5052481;28;20424;-69
2023/01/27 07:08:45;;;;;;;22.90;15.63;;;-0.10;99.90;;;;;;5044627;28;20390;-70
2023/01/27 07:11:11;;;;;;;20.77;15.40;;;0.00;99.90;;;;;;5064259;28;20883;-70
2023/01/27 07:13:37;;;;;;;21.88;15.68;;;0.10;99.90;;;;;;5053407;28;20410;-71
2023/01/27 07:16:03;;;;;;;20.63;14.97;;;0.00;99.90;;;;;;5059632;28;20978;-70
2023/01/27 07:18:28;;;;;;;20.10;15.30;;;0.00;99.90;;;;;;5049299;28;20385;-70
2023/01/27 07:20:54;;;;;;;21.33;15.93;;;0.00;99.90;;;;;;5050566;28;20408;-70
2023/01/27 07:23:19;;;;;;;19.97;14.97;;;0.00;99.90;;;;;;5049649;28;20859;-70
2023/01/27 07:25:45;;;;;;;21.40;16.03;;;0.10;99.90;;;;;;5031895;28;20737;-71
2023/01/27 07:28:10;;;;;;;20.43;15.27;;;0.10;99.90;;;;;;5050535;28;20721;-70
2023/01/27 07:30:37;;;;;;;18.27;14.93;;;0.00;99.90;;;;;;5050335;28;20943;-70
2023/01/27 07:33:08;;;;;;;20.08;15.77;;;0.00;99.90;;;;;;5049425;28;20400;-69
2023/01/27 07:35:35;;;;;;;20.90;15.60;;;0.00;99.90;;;;;;5041655;28;20445;-71
2023/01/27 07:38:01;;;;;;;20.25;15.10;;;0.10;99.90;;;;;;5039199;28;20858;-69
2023/01/27 07:40:27;;;;;;;21.13;15.50;;;0.10;99.90;;;;;;5050190;28;20405;-72
2023/01/27 07:42:52;;;;;;;22.10;14.87;;;0.20;99.90;;;;;;5049150;28;20478;-69
2023/01/27 07:45:18;;;;;;;21.77;14.80;;;0.20;99.90;;;;;;5050353;28;20385;-70
2023/01/27 07:47:43;;;;;;;20.27;15.73;;;0.10;99.90;;;;;;5050350;28;20851;-70
2023/01/27 07:50:11;;;;;;;19.53;15.30;;;0.10;99.90;;;;;;5050214;28;20388;-69
2023/01/27 07:52:36;;;;;;;19.27;14.70;;;0.20;99.90;;;;;;5049126;28;20405;-70
2023/01/27 07:55:02;;;;;;;19.00;15.10;;;0.10;99.90;;;;;;5032080;28;20396;-70
2023/01/27 07:57:27;;;;;;;21.47;15.53;;;0.00;99.90;;;;;;5050228;28;20393;-70
2023/01/27 07:59:55;;;;;;;21.30;15.93;;;0.00;99.90;;;;;;5049974;28;20401;-71
2023/01/27 08:02:21;;;;;;;20.30;15.93;;;0.10;99.90;;;;;;5050221;28;20392;-70
2023/01/27 08:04:49;;;;;;;22.13;16.30;;;-0.20;99.90;;;;;;5049245;28;20465;-69
2023/01/27 08:07:14;;;;;;;19.35;16.13;;;-0.10;99.90;;;;;;5050004;28;20739;-70
2023/01/27 08:09:40;;;;;;;18.50;15.07;;;0.20;99.90;;;;;;5049900;28;20476;-70
2023/01/27 08:12:06;;;;;;;20.27;15.80;;;0.00;99.90;;;;;;5073896;22;20425;-69
2023/01/27 08:14:33;;;;;;;21.08;15.23;;;0.10;99.90;;;;;;5059611;28;21405;-70
2023/01/27 08:16:59;;;;;;;19.83;14.67;;;0.10;99.90;;;;;;5085920;28;20492;-70
2023/01/27 08:19:25;;;;;;;22.25;16.20;;;-0.10;99.90;;;;;;5072561;28;20394;-70
2023/01/27 08:21:50;;;;;;;21.97;16.13;;;0.10;99.90;;;;;;5080026;28;20386;-70
2023/01/27 08:24:16;;;;;;;23.27;17.30;;;0.10;99.90;;;;;;5063332;28;20777;-70
2023/01/27 08:26:41;;;;;;;21.43;15.30;;;0.00;99.90;;;;;;5073562;28;20391;-70
2023/01/27 08:29:07;;;;;;;20.40;15.50;;;-0.10;99.90;;;;;;5073301;28;20757;-70
2023/01/27 08:31:32;;;;;;;24.87;16.33;;;-0.10;99.90;;;;;;5073883;28;20462;-72
2023/01/27 08:33:58;;;;;;;22.63;16.20;;;0.20;99.90;;;;;;5072989;28;20382;-71
2023/01/27 08:36:24;;;;;;;19.70;14.83;;;0.40;99.90;;;;;;5073688;28;20392;-71
2023/01/27 08:38:50;;;;;;;21.00;15.33;;;0.40;99.90;;;;;;5073718;28;20388;-71
2023/01/27 08:41:19;;;;;;;19.65;14.80;;;0.50;99.90;;;;;;5072954;28;20456;-71
2023/01/27 08:43:45;;;;;;;20.35;16.77;;;0.30;99.90;;;;;;5072382;28;21011;-71
2023/01/27 08:46:11;;;;;;;24.60;16.57;;;0.30;99.90;;;;;;5073153;28;20392;-71
2023/01/27 08:48:38;;;;;;;18.63;14.73;;;0.50;99.90;;;;;;5073446;28;20745;-70
2023/01/27 08:51:05;;;;;;;16.92;14.10;;;0.70;99.90;;;;;;5073351;28;20383;-71
2023/01/27 08:53:30;;;;;;;16.38;12.77;;;0.40;99.90;;;;;;5072429;28;20384;-71
2023/01/27 08:55:58;;;;;;;15.30;12.50;;;0.60;99.90;;;;;;5072453;28;20896;-71
2023/01/27 08:58:24;;;;;;;15.65;12.30;;;0.80;99.90;;;;;;5072601;28;20399;-70
2023/01/27 09:00:49;;;;;;;15.70;11.85;;;0.80;99.90;;;;;;5073154;28;20766;-71
2023/01/27 09:03:16;;;;;;;15.70;12.27;;;0.80;99.90;;;;;;5072426;28;20467;-71
2023/01/27 09:05:41;;;;;;;16.77;11.23;;;0.80;99.90;;;;;;5073250;28;20376;-70
2023/01/27 09:08:08;;;;;;;13.48;11.38;;;0.90;99.90;;;;;;5072023;28;20759;-71
2023/01/27 09:10:39;;;;;;;11.98;10.30;;;1.00;99.90;;;;;;5073272;28;20756;-70
2023/01/27 09:13:06;;;;;;;15.68;11.90;;;0.90;99.90;;;;;;5072017;28;20862;-70
2023/01/27 09:15:31;;;;;;;13.57;10.60;;;1.00;99.90;;;;;;5071716;28;20450;-71
2023/01/27 09:17:57;;;;;;;13.73;10.53;;;0.90;99.90;;;;;;5073046;28;20380;-71
2023/01/27 09:20:22;;;;;;;14.43;10.50;;;0.90;99.90;;;;;;5072654;28;20404;-70
2023/01/27 09:22:48;;;;;;;10.70;9.60;;;1.00;99.90;;;;;;5071855;28;20407;-70
2023/01/27 09:25:15;;;;;;;12.97;10.50;;;1.10;99.90;;;;;;5072024;28;20874;-71
2023/01/27 09:27:44;;;;;;;14.17;9.73;;;1.30;99.90;;;;;;5072873;28;20474;-70
2023/01/27 09:30:12;;;;;;;14.05;10.25;;;1.30;99.90;;;;;;5072578;28;20440;-70
2023/01/27 09:32:38;;;;;;;13.60;10.25;;;1.10;99.90;;;;;;5071884;28;20390;-70
2023/01/27 09:35:04;;;;;;;12.80;10.80;;;1.20;99.90;;;;;;5067986;28;20887;-71
2023/01/27 09:37:34;;;;;;;11.98;10.13;;;1.40;99.90;;;;;;5052574;28;20792;-71
2023/01/27 09:40:07;;;;;;;12.40;9.80;;;1.50;99.90;;;;;;5053370;28;20422;-71
2023/01/27 09:43:11;;;;;;;12.77;9.55;;;1.50;99.90;;;;;;5060552;28;20394;-70
2023/01/27 09:46:08;;;;;;;11.93;9.60;;;1.50;99.90;;;;;;5071788;28;20456;-70
2023/01/27 09:48:42;;;;;;;11.95;9.90;;;1.50;99.90;;;;;;5072739;28;20382;-70
2023/01/27 09:51:21;;;;;;;10.32;8.70;;;1.60;99.90;;;;;;5072032;28;20947;-70
2023/01/27 09:53:59;;;;;;;12.30;9.38;;;1.50;99.90;;;;;;5071232;28;20458;-70
2023/01/27 09:56:50;;;;;;;12.70;10.05;;;1.30;99.90;;;;;;5071894;28;20409;-70
2023/01/27 09:59:34;;;;;;;10.25;8.50;;;1.60;99.90;;;;;;5072060;28;20380;-71
2023/01/27 10:02:36;;;;;;;10.45;8.63;;;1.70;99.90;;;;;;5071921;28;20422;-70
2023/01/27 10:05:39;;;;;;;13.98;10.15;;;1.80;99.90;;;;;;5071837;28;20507;-70
2023/01/27 10:08:20;;;;;;;13.52;9.50;;;1.60;99.90;;;;;;5057815;28;20460;-70
2023/01/27 10:11:15;;;;;;;12.02;9.45;;;1.70;99.90;;;;;;5065685;28;20416;-70
2023/01/27 10:14:05;;;;;;;12.50;9.48;;;1.60;99.90;;;;;;5051008;28;20503;-70
2023/01/27 10:16:30;;;;;;;10.98;9.38;;;1.60;99.90;;;;;;5051716;28;20435;-69
2023/01/27 10:19:19;;;;;;;12.10;9.30;;;1.80;99.90;;;;;;5063470;28;20670;-70
2023/01/27 10:21:58;;;;;;;11.10;9.10;;;1.90;99.90;;;;;;5071425;28;20399;-70
2023/01/27 10:24:49;;;;;;;13.00;9.18;;;1.90;99.90;;;;;;5071298;28;20850;-70
2023/01/27 10:27:20;;;;;;;11.18;8.38;;;2.10;99.90;;;;;;5071920;28;20379;-70
2023/01/27 10:29:55;;;;;;;11.50;9.30;;;2.10;99.90;;;;;;5071847;28;20468;-69
2023/01/27 10:32:37;;;;;;;11.80;9.10;;;1.80;99.90;;;;;;5071700;28;20372;-70
2023/01/27 10:35:14;;;;;;;12.60;9.00;;;1.70;99.90;;;;;;5055816;28;20388;-70
2023/01/27 10:38:02;;;;;;;11.68;8.75;;;1.50;99.90;;;;;;5071217;28;20453;-69
2023/01/27 10:40:27;;;;;;;10.25;9.13;;;1.60;99.90;;;;;;5069999;28;20404;-70
2023/01/27 10:43:15;;;;;;;11.40;9.10;;;1.60;99.90;;;;;;5070633;28;20383;-69
2023/01/27 10:45:56;;;;;;;9.93;8.20;;;1.80;99.90;;;;;;5071180;28;20470;-70
2023/01/27 10:48:21;;;;;;;8.73;7.20;;;1.60;99.90;;;;;;5069384;28;20535;-70
2023/01/27 10:51:00;;;;;;;9.67;7.63;;;1.50;99.90;;;;;;5070860;28;20402;-70
2023/01/27 10:53:56;;;;;;;9.35;7.50;;;1.60;99.90;;;;;;5070343;28;20473;-69
2023/01/27 10:56:32;;;;;;;8.57;6.93;;;1.60;99.90;;;;;;5070736;28;20455;-70
2023/01/27 10:59:24;;;;;;;10.25;8.07;;;1.60;99.90;;;;;;5070942;28;20415;-70
2023/01/27 11:01:57;;;;;;;10.68;7.80;;;1.70;99.90;;;;;;5071123;28;20383;-70
2023/01/27 11:04:35;;;;;;;8.98;7.20;;;1.80;99.90;;;;;;5069266;28;20454;-69
2023/01/27 11:07:04;;;;;;;10.07;7.77;;;1.60;99.90;;;;;;5071101;28;20424;-69
2023/01/27 11:09:33;;;;;;;9.20;7.50;;;1.80;99.90;;;;;;5070912;28;20403;-69
2023/01/27 11:12:03;;;;;;;9.20;6.68;;;2.10;99.90;;;;;;5070947;28;20380;-69
2023/01/27 11:14:47;;;;;;;9.05;7.20;;;2.00;99.90;;;;;;5068871;28;20897;-70
2023/01/27 11:17:33;;;;;;;7.75;6.63;;;2.10;99.90;;;;;;5070769;28;20391;-69
2023/01/27 11:20:12;;;;;;;9.40;7.28;;;2.00;99.90;;;;;;5070899;28;20549;-69
2023/01/27 11:22:55;;;;;;;8.32;6.82;;;1.60;99.90;;;;;;5069932;28;20403;-69
2023/01/27 11:25:51;;;;;;;7.70;6.50;;;2.20;99.90;;;;;;5070436;28;20754;-69
2023/01/27 11:28:44;;;;;;;9.43;7.00;;;2.60;99.90;;;;;;5070571;28;20384;-69
2023/01/27 11:31:41;;;;;;;9.50;6.57;;;2.60;99.90;;;;;;5070677;28;20391;-70
2023/01/27 11:34:36;;;;;;;8.48;7.07;;;2.50;99.90;;;;;;5069726;28;20380;-70
2023/01/27 11:37:24;;;;;;;9.25;7.50;;;2.40;99.90;;;;;;5052297;28;20388;-69
2023/01/27 11:39:49;;;;;;;9.15;6.85;;;2.30;99.90;;;;;;5068823;28;20408;-70
2023/01/27 11:42:15;;;;;;;8.68;7.20;;;2.20;99.90;;;;;;5070399;28;20388;-69
2023/01/27 11:44:42;;;;;;;9.88;6.95;;;2.00;99.90;;;;;;5069667;28;20391;-69
2023/01/27 11:47:17;;;;;;;7.32;6.38;;;2.20;99.90;;;;;;5069143;28;20472;-70
2023/01/27 11:49:46;;;;;;;9.63;6.87;;;2.20;99.90;;;;;;5070182;28;20804;-70
2023/01/27 11:52:14;;;;;;;9.57;6.88;;;2.20;99.90;;;;;;5070195;28;20758;-69
2023/01/27 11:54:51;;;;;;;9.43;6.60;;;2.10;99.90;;;;;;5069332;28;20383;-69
2023/01/27 11:57:21;;;;;;;7.97;6.55;;;1.90;99.90;;;;;;5070037;28;20383;-69
2023/01/27 11:59:50;;;;;;;8.85;7.30;;;1.90;99.90;;;;;;5072534;28;20988;-70
2023/01/27 12:02:42;;;;;;;8.65;6.60;;;1.90;99.90;;;;;;5074156;28;20388;-69
2023/01/27 12:05:16;;;;;;;9.47;7.47;;;1.90;99.90;;;;;;5057944;28;20418;-69
2023/01/27 12:07:59;;;;;;;8.32;6.72;;;1.90;99.90;;;;;;5073749;28;20423;-69
2023/01/27 12:10:30;;;;;;;9.55;7.43;;;2.00;99.90;;;;;;5074319;28;20436;-69
2023/01/27 12:12:59;;;;;;;8.70;6.60;;;2.00;99.90;;;;;;5073037;28;20440;-69
2023/01/27 12:15:27;;;;;;;9.90;6.97;;;2.10;99.90;;;;;;5073993;28;20387;-70
2023/01/27 12:17:57;;;;;;;9.65;6.90;;;2.40;99.90;;;;;;5073937;28;20865;-70
2023/01/27 12:20:38;;;;;;;9.47;6.90;;;2.30;99.90;;;;;;5073643;28;20422;-70
2023/01/27 12:23:28;;;;;;;7.97;6.90;;;2.40;99.90;;;;;;5072699;28;20445;-70
2023/01/27 12:26:06;;;;;;;7.72;6.80;;;2.60;99.90;;;;;;5064819;28;20415;-71
2023/01/27 12:28:40;;;;;;;8.63;7.13;;;2.90;99.90;;;;;;5073601;28;20404;-71
2023/01/27 12:31:09;;;;;;;9.43;7.50;;;3.10;99.90;;;;;;5073753;28;20394;-70
2023/01/27 12:33:39;;;;;;;7.80;5.97;;;3.00;99.90;;;;;;5073134;28;20470;-70
2023/01/27 12:36:18;;;;;;;9.23;6.95;;;2.70;99.90;;;;;;5067266;28;20392;-70
2023/01/27 12:39:06;;;;;;;9.13;6.82;;;3.10;99.90;;;;;;5073350;28;20376;-70
2023/01/27 12:41:34;;;;;;;7.00;5.75;;;3.10;99.90;;;;;;5073346;28;20411;-71
2023/01/27 12:44:13;;;;;;;7.70;6.50;;;3.50;99.70;;;;;;5072873;28;20741;-70
2023/01/27 12:46:41;;;;;;;7.47;6.53;;;4.50;92.50;;;;;;5073785;28;20410;-71
2023/01/27 12:49:13;;;;;;;7.50;5.97;;;4.70;76.70;;;;;;5074064;28;20411;-71
2023/01/27 12:51:42;;;;;;;7.22;6.00;;;4.30;83.70;;;;;;5073535;28;20909;-70
2023/01/27 12:54:34;;;;;;;6.57;5.80;;;4.60;85.70;;;;;;5072692;28;20422;-71
2023/01/27 12:57:11;;;;;;;7.00;6.30;;;3.80;86.80;;;;;;5070839;28;20423;-71
2023/01/27 12:59:48;;;;;;;7.72;6.70;;;3.50;94.70;;;;;;5073359;28;20391;-71
2023/01/27 13:02:22;;;;;;;7.95;5.82;;;3.60;93.60;;;;;;5073312;28;20384;-71
2023/01/27 13:04:57;;;;;;;7.80;5.70;;;3.50;95.40;;;;;;5072736;28;20474;-71
2023/01/27 13:07:27;;;;;;;8.23;6.28;;;3.10;96.70;;;;;;5071722;28;20441;-71
2023/01/27 13:09:56;;;;;;;7.22;5.90;;;2.90;99.70;;;;;;5073231;28;20392;-71
2023/01/27 13:12:27;;;;;;;7.32;6.53;;;3.00;95.70;;;;;;5072695;28;20419;-71
2023/01/27 13:14:58;;;;;;;6.45;5.45;;;2.90;99.90;;;;;;5073250;28;20459;-71
2023/01/27 13:17:44;;;;;;;6.35;5.15;;;2.80;99.90;;;;;;5073913;28;20387;-72
2023/01/27 13:20:16;;;;;;;7.60;6.20;;;2.80;98.40;;;;;;5072687;28;20523;-70